Terminal Aerodrome Forecast
Issued by NWS North Platte, NE

Home | Current Version | Previous Version | Graphics & Text | Print | Product List | Glossary On
Versions: 1 2 3 4 5 6 7 8 9 10 11 12 13 14 15 16 17
000
FTUS43 KLBF 162300 RRA
TAFVTN
TAF
KVTN 162344Z 1700/1724 01016G21KT P6SM OVC013
     FM170200 03006KT P6SM BKN013
     FM170400 05006KT P6SM OVC025
     FM170600 04006KT 5SM BR OVC060
     FM171500 13009KT P6SM BKN060=

USA.gov is the U.S. government's official web portal to all federal, state and local government web resources and services.